Briefing drone pour Poisy

Rechercher une autre localisation

Conditions de vol :


Nous sommes le : Samedi 24 septembre 2022
Il est 21:50 UTC (23:50 LT)

Lever de soleil : 04:58 UTC (06:58 LT)
Coucher de soleil : 17:56 UTC (19:56 LT)

Météo

L'essentiel des conditions de vol

VIGILANCE MÉTÉO FRANCE - Haute-Savoie (74)
Vigilance Jaune : Orages
METAR de LFLP
LFLP 242130Z AUTO VRB01KT 9999 -RA FEW056/// BKN072/// OVC100/// ///CB 13/12 Q1013

Date d'émission: 24/09/2022
Heure d'émission: 21:30 UTC
Vent: Variable 1 KT (2 km/h)
Visibilité horizontale: > 10 km
Plafond :
- Peu de nuages à 5600ft (1707m)
- Nuages morcelés à 7200ft (2195m)
- Couvert à 10000ft (3048m)
Température: 13 °C
Point de rosée: 12 °C
Humidité: 94%
Pression (QNH): 1013 hPa
Conditions: Faible pluie
TAF de LFLP
AMD LFLP 241903Z 2419/2515 CNL

Conditions prévues :

Heure d'émission : Bulletin éffectué le 24 à 19:00 UTC
Prévision : Valide du 24 a 19:00 UTC au 25 a 15:00 UTC
Nuages : à 0ft (0 m)
WEBCAM POUR POISY

Réglementation

Voler en sécurité

CARTES AERONAUTIQUE 1/500.000
CARTE AZBA (Reseau basse altitude)
CARTES VAC (LFLP)
SUP AIP




Chargement des AIP...
NOTAM (POISY + Terrain à proximité / FIR )




Chargement des NOTAMS...
CONTACT PREFECTURE 74


Avertissement : Les données mises à disposition sont indicatives. Oxygène Drone ne pourra être tenu responsable de dégâts causés aux biens et aux personnes.